sensor_id;sensor_type;location;lat;lon;timestamp;temperature;humidity
3954;DHT22;1991;48.682;9.030;2022-12-29T00:01:36;8.50;99.90
3954;DHT22;1991;48.682;9.030;2022-12-29T00:04:02;8.70;99.90
3954;DHT22;1991;48.682;9.030;2022-12-29T00:06:28;8.70;99.90
3954;DHT22;1991;48.682;9.030;2022-12-29T00:08:54;8.80;99.90
3954;DHT22;1991;48.682;9.030;2022-12-29T00:11:23;8.80;99.90
3954;DHT22;1991;48.682;9.030;2022-12-29T00:13:49;8.80;99.90
3954;DHT22;1991;48.682;9.030;2022-12-29T00:16:35;8.80;99.90
3954;DHT22;1991;48.682;9.030;2022-12-29T00:19:01;8.90;99.90
3954;DHT22;1991;48.682;9.030;2022-12-29T00:21:28;9.00;99.90
3954;DHT22;1991;48.682;9.030;2022-12-29T00:24:17;9.00;99.90
3954;DHT22;1991;48.682;9.030;2022-12-29T00:29:39;8.90;99.90
3954;DHT22;1991;48.682;9.030;2022-12-29T00:32:23;8.90;99.90
3954;DHT22;1991;48.682;9.030;2022-12-29T00:35:09;9.00;99.90
3954;DHT22;1991;48.682;9.030;2022-12-29T00:37:44;9.00;99.90
3954;DHT22;1991;48.682;9.030;2022-12-29T00:40:29;9.10;99.90
3954;DHT22;1991;48.682;9.030;2022-12-29T00:43:14;9.10;99.90
3954;DHT22;1991;48.682;9.030;2022-12-29T00:45:58;9.10;99.90
3954;DHT22;1991;48.682;9.030;2022-12-29T00:48:23;9.10;99.90
3954;DHT22;1991;48.682;9.030;2022-12-29T00:51:09;9.10;99.90
3954;DHT22;1991;48.682;9.030;2022-12-29T00:53:35;9.00;99.90
3954;DHT22;1991;48.682;9.030;2022-12-29T00:56:00;9.00;99.90
3954;DHT22;1991;48.682;9.030;2022-12-29T00:58:30;9.00;99.90
3954;DHT22;1991;48.682;9.030;2022-12-29T01:01:03;8.90;99.90
3954;DHT22;1991;48.682;9.030;2022-12-29T01:03:29;8.90;99.90
3954;DHT22;1991;48.682;9.030;2022-12-29T01:05:55;8.90;99.90
3954;DHT22;1991;48.682;9.030;2022-12-29T01:08:21;8.90;99.90
3954;DHT22;1991;48.682;9.030;2022-12-29T01:10:46;8.90;99.90
3954;DHT22;1991;48.682;9.030;2022-12-29T01:13:12;9.00;99.90
3954;DHT22;1991;48.682;9.030;2022-12-29T01:15:37;9.00;99.90
3954;DHT22;1991;48.682;9.030;2022-12-29T01:18:03;9.10;99.90
3954;DHT22;1991;48.682;9.030;2022-12-29T01:20:28;9.10;99.90
3954;DHT22;1991;48.682;9.030;2022-12-29T01:22:54;9.10;99.90
3954;DHT22;1991;48.682;9.030;2022-12-29T01:25:20;9.10;99.90
3954;DHT22;1991;48.682;9.030;2022-12-29T01:27:45;9.30;99.80
3954;DHT22;1991;48.682;9.030;2022-12-29T01:30:11;9.30;99.80
3954;DHT22;1991;48.682;9.030;2022-12-29T01:32:37;9.30;99.90
3954;DHT22;1991;48.682;9.030;2022-12-29T01:35:03;9.40;99.60
3954;DHT22;1991;48.682;9.030;2022-12-29T01:37:29;9.30;99.60
3954;DHT22;1991;48.682;9.030;2022-12-29T01:39:54;9.30;99.50
3954;DHT22;1991;48.682;9.030;2022-12-29T01:42:24;9.40;99.40
3954;DHT22;1991;48.682;9.030;2022-12-29T01:44:52;9.40;99.60
3954;DHT22;1991;48.682;9.030;2022-12-29T01:50:15;9.50;99.30
3954;DHT22;1991;48.682;9.030;2022-12-29T01:52:56;9.50;99.00
3954;DHT22;1991;48.682;9.030;2022-12-29T01:55:25;9.50;98.90
3954;DHT22;1991;48.682;9.030;2022-12-29T01:57:58;9.50;98.80
3954;DHT22;1991;48.682;9.030;2022-12-29T02:00:24;9.60;98.80
3954;DHT22;1991;48.682;9.030;2022-12-29T02:02:53;9.60;98.80
3954;DHT22;1991;48.682;9.030;2022-12-29T02:05:32;9.50;98.70
3954;DHT22;1991;48.682;9.030;2022-12-29T02:08:00;9.50;98.80
3954;DHT22;1991;48.682;9.030;2022-12-29T02:10:29;9.50;98.80
3954;DHT22;1991;48.682;9.030;2022-12-29T02:12:56;9.60;98.30
3954;DHT22;1991;48.682;9.030;2022-12-29T02:16:09;9.70;98.20
3954;DHT22;1991;48.682;9.030;2022-12-29T02:18:51;9.70;97.80
3954;DHT22;1991;48.682;9.030;2022-12-29T02:30:03;9.70;97.80
3954;DHT22;1991;48.682;9.030;2022-12-29T02:32:36;9.70;97.80
3954;DHT22;1991;48.682;9.030;2022-12-29T02:41:05;9.90;97.30
3954;DHT22;1991;48.682;9.030;2022-12-29T02:43:54;10.00;97.10
3954;DHT22;1991;48.682;9.030;2022-12-29T02:49:06;10.10;96.70
3954;DHT22;1991;48.682;9.030;2022-12-29T02:51:50;10.10;96.80
3954;DHT22;1991;48.682;9.030;2022-12-29T02:54:19;10.10;96.60
3954;DHT22;1991;48.682;9.030;2022-12-29T02:57:05;10.20;96.40
3954;DHT22;1991;48.682;9.030;2022-12-29T02:59:33;10.20;96.60
3954;DHT22;1991;48.682;9.030;2022-12-29T03:07:55;10.30;96.10
3954;DHT22;1991;48.682;9.030;2022-12-29T03:11:31;10.50;95.90
3954;DHT22;1991;48.682;9.030;2022-12-29T03:16:28;10.50;95.80
3954;DHT22;1991;48.682;9.030;2022-12-29T03:21:50;10.60;95.60
3954;DHT22;1991;48.682;9.030;2022-12-29T03:24:42;10.70;95.30
3954;DHT22;1991;48.682;9.030;2022-12-29T03:27:11;10.70;95.40
3954;DHT22;1991;48.682;9.030;2022-12-29T03:29:42;10.60;95.40
3954;DHT22;1991;48.682;9.030;2022-12-29T03:32:12;10.60;95.60
3954;DHT22;1991;48.682;9.030;2022-12-29T03:34:38;10.60;95.70
3954;DHT22;1991;48.682;9.030;2022-12-29T03:37:11;10.60;95.80
3954;DHT22;1991;48.682;9.030;2022-12-29T03:39:38;10.70;95.70
3954;DHT22;1991;48.682;9.030;2022-12-29T03:42:13;10.70;95.70
3954;DHT22;1991;48.682;9.030;2022-12-29T03:44:43;10.60;95.90
3954;DHT22;1991;48.682;9.030;2022-12-29T03:47:11;10.60;96.10
3954;DHT22;1991;48.682;9.030;2022-12-29T03:49:37;10.60;96.30
3954;DHT22;1991;48.682;9.030;2022-12-29T03:52:03;10.40;96.60
3954;DHT22;1991;48.682;9.030;2022-12-29T03:54:29;10.40;96.70
3954;DHT22;1991;48.682;9.030;2022-12-29T03:56:55;10.30;97.00
3954;DHT22;1991;48.682;9.030;2022-12-29T03:59:21;10.30;97.20
3954;DHT22;1991;48.682;9.030;2022-12-29T04:01:46;10.10;97.60
3954;DHT22;1991;48.682;9.030;2022-12-29T04:04:12;10.20;97.70
3954;DHT22;1991;48.682;9.030;2022-12-29T04:06:38;10.20;97.80
3954;DHT22;1991;48.682;9.030;2022-12-29T04:09:03;10.20;97.90
3954;DHT22;1991;48.682;9.030;2022-12-29T04:11:29;10.30;98.00
3954;DHT22;1991;48.682;9.030;2022-12-29T04:13:54;10.10;98.30
3954;DHT22;1991;48.682;9.030;2022-12-29T04:16:20;10.10;98.50
3954;DHT22;1991;48.682;9.030;2022-12-29T04:18:45;10.00;98.80
3954;DHT22;1991;48.682;9.030;2022-12-29T04:21:11;10.00;99.00
3954;DHT22;1991;48.682;9.030;2022-12-29T04:23:38;10.00;99.00
3954;DHT22;1991;48.682;9.030;2022-12-29T04:26:05;10.10;99.30
3954;DHT22;1991;48.682;9.030;2022-12-29T04:28:34;10.10;99.20
3954;DHT22;1991;48.682;9.030;2022-12-29T04:31:00;10.20;99.30
3954;DHT22;1991;48.682;9.030;2022-12-29T04:33:26;10.10;99.40
3954;DHT22;1991;48.682;9.030;2022-12-29T04:35:52;10.00;99.90
3954;DHT22;1991;48.682;9.030;2022-12-29T04:38:20;9.90;99.90
3954;DHT22;1991;48.682;9.030;2022-12-29T04:40:46;9.90;99.90
3954;DHT22;1991;48.682;9.030;2022-12-29T04:43:12;9.90;99.90
3954;DHT22;1991;48.682;9.030;2022-12-29T04:45:47;9.90;99.90
3954;DHT22;1991;48.682;9.030;2022-12-29T04:48:13;9.90;99.90
3954;DHT22;1991;48.682;9.030;2022-12-29T04:50:40;9.90;99.90
3954;DHT22;1991;48.682;9.030;2022-12-29T04:53:05;9.90;99.90
3954;DHT22;1991;48.682;9.030;2022-12-29T04:55:31;10.00;99.90
3954;DHT22;1991;48.682;9.030;2022-12-29T04:57:57;9.90;99.90
3954;DHT22;1991;48.682;9.030;2022-12-29T05:00:22;9.90;99.90
3954;DHT22;1991;48.682;9.030;2022-12-29T05:02:48;10.00;99.90
3954;DHT22;1991;48.682;9.030;2022-12-29T05:05:14;10.10;99.90
3954;DHT22;1991;48.682;9.030;2022-12-29T05:07:40;10.20;99.90
3954;DHT22;1991;48.682;9.030;2022-12-29T05:10:06;10.10;99.90
3954;DHT22;1991;48.682;9.030;2022-12-29T05:12:33;10.10;99.90
3954;DHT22;1991;48.682;9.030;2022-12-29T05:14:59;9.90;99.90
3954;DHT22;1991;48.682;9.030;2022-12-29T05:17:25;10.00;99.90
3954;DHT22;1991;48.682;9.030;2022-12-29T05:19:51;10.00;99.90
3954;DHT22;1991;48.682;9.030;2022-12-29T05:22:16;10.00;99.90
3954;DHT22;1991;48.682;9.030;2022-12-29T05:24:42;10.00;99.90
3954;DHT22;1991;48.682;9.030;2022-12-29T05:27:07;9.90;99.90
3954;DHT22;1991;48.682;9.030;2022-12-29T05:29:33;10.00;99.90
3954;DHT22;1991;48.682;9.030;2022-12-29T05:31:59;9.90;99.90
3954;DHT22;1991;48.682;9.030;2022-12-29T05:34:24;9.80;99.90
3954;DHT22;1991;48.682;9.030;2022-12-29T05:36:50;9.90;99.90
3954;DHT22;1991;48.682;9.030;2022-12-29T05:39:15;10.00;99.90
3954;DHT22;1991;48.682;9.030;2022-12-29T05:41:41;10.00;99.90
3954;DHT22;1991;48.682;9.030;2022-12-29T05:44:07;10.00;99.90
3954;DHT22;1991;48.682;9.030;2022-12-29T05:46:32;10.00;99.90
3954;DHT22;1991;48.682;9.030;2022-12-29T05:48:58;9.90;99.90
3954;DHT22;1991;48.682;9.030;2022-12-29T05:51:23;9.90;99.90
3954;DHT22;1991;48.682;9.030;2022-12-29T05:53:52;10.00;99.90
3954;DHT22;1991;48.682;9.030;2022-12-29T05:56:18;10.00;99.90
3954;DHT22;1991;48.682;9.030;2022-12-29T05:58:43;10.10;99.90
3954;DHT22;1991;48.682;9.030;2022-12-29T06:01:09;10.10;99.90
3954;DHT22;1991;48.682;9.030;2022-12-29T06:03:34;10.20;99.90
3954;DHT22;1991;48.682;9.030;2022-12-29T06:06:00;10.30;99.90
3954;DHT22;1991;48.682;9.030;2022-12-29T06:08:26;10.20;99.90
3954;DHT22;1991;48.682;9.030;2022-12-29T06:10:51;10.30;99.90
3954;DHT22;1991;48.682;9.030;2022-12-29T06:13:17;10.30;99.90
3954;DHT22;1991;48.682;9.030;2022-12-29T06:15:42;10.30;99.90
3954;DHT22;1991;48.682;9.030;2022-12-29T06:18:08;10.20;99.90
3954;DHT22;1991;48.682;9.030;2022-12-29T06:20:34;10.10;99.90
3954;DHT22;1991;48.682;9.030;2022-12-29T06:23:00;9.90;99.90
3954;DHT22;1991;48.682;9.030;2022-12-29T06:25:25;10.00;99.90
3954;DHT22;1991;48.682;9.030;2022-12-29T06:27:51;10.10;99.90
3954;DHT22;1991;48.682;9.030;2022-12-29T06:30:16;10.10;99.80
3954;DHT22;1991;48.682;9.030;2022-12-29T06:32:43;10.30;99.50
3954;DHT22;1991;48.682;9.030;2022-12-29T06:35:09;10.20;99.50
3954;DHT22;1991;48.682;9.030;2022-12-29T06:37:35;10.20;98.80
3954;DHT22;1991;48.682;9.030;2022-12-29T06:40:01;10.20;98.90
3954;DHT22;1991;48.682;9.030;2022-12-29T06:42:27;10.20;98.80
3954;DHT22;1991;48.682;9.030;2022-12-29T06:44:53;10.20;98.60
3954;DHT22;1991;48.682;9.030;2022-12-29T06:47:18;10.20;98.40
3954;DHT22;1991;48.682;9.030;2022-12-29T06:49:44;10.20;98.50
3954;DHT22;1991;48.682;9.030;2022-12-29T06:52:10;10.20;98.20
3954;DHT22;1991;48.682;9.030;2022-12-29T06:54:35;10.10;98.20
3954;DHT22;1991;48.682;9.030;2022-12-29T06:57:01;10.10;98.50
3954;DHT22;1991;48.682;9.030;2022-12-29T06:59:26;10.00;98.50
3954;DHT22;1991;48.682;9.030;2022-12-29T07:01:52;9.90;98.60
3954;DHT22;1991;48.682;9.030;2022-12-29T07:04:17;9.90;98.80
3954;DHT22;1991;48.682;9.030;2022-12-29T07:06:43;9.90;98.80
3954;DHT22;1991;48.682;9.030;2022-12-29T07:09:09;9.90;98.60
3954;DHT22;1991;48.682;9.030;2022-12-29T07:11:35;10.00;98.40
3954;DHT22;1991;48.682;9.030;2022-12-29T07:14:02;9.80;98.60
3954;DHT22;1991;48.682;9.030;2022-12-29T07:16:27;9.70;98.80
3954;DHT22;1991;48.682;9.030;2022-12-29T07:18:54;9.60;99.20
3954;DHT22;1991;48.682;9.030;2022-12-29T07:21:20;9.60;99.30
3954;DHT22;1991;48.682;9.030;2022-12-29T07:23:46;9.70;99.30
3954;DHT22;1991;48.682;9.030;2022-12-29T07:26:14;9.70;99.30
3954;DHT22;1991;48.682;9.030;2022-12-29T07:28:40;9.70;99.50
3954;DHT22;1991;48.682;9.030;2022-12-29T07:31:20;9.60;99.50
3954;DHT22;1991;48.682;9.030;2022-12-29T07:33:46;9.70;99.40
3954;DHT22;1991;48.682;9.030;2022-12-29T07:36:13;9.70;99.50
3954;DHT22;1991;48.682;9.030;2022-12-29T07:38:40;9.60;99.70
3954;DHT22;1991;48.682;9.030;2022-12-29T07:41:05;9.60;99.80
3954;DHT22;1991;48.682;9.030;2022-12-29T07:43:31;9.60;99.80
3954;DHT22;1991;48.682;9.030;2022-12-29T07:45:57;9.70;99.80
3954;DHT22;1991;48.682;9.030;2022-12-29T07:48:23;9.80;99.60
3954;DHT22;1991;48.682;9.030;2022-12-29T07:50:48;9.90;99.60
3954;DHT22;1991;48.682;9.030;2022-12-29T07:53:14;9.90;99.50
3954;DHT22;1991;48.682;9.030;2022-12-29T07:55:40;10.00;99.30
3954;DHT22;1991;48.682;9.030;2022-12-29T07:58:06;10.10;99.20
3954;DHT22;1991;48.682;9.030;2022-12-29T08:00:32;10.10;99.10
3954;DHT22;1991;48.682;9.030;2022-12-29T08:02:58;10.20;99.00
3954;DHT22;1991;48.682;9.030;2022-12-29T08:05:23;10.20;98.90
3954;DHT22;1991;48.682;9.030;2022-12-29T08:07:49;10.20;98.80
3954;DHT22;1991;48.682;9.030;2022-12-29T08:10:15;10.30;98.70
3954;DHT22;1991;48.682;9.030;2022-12-29T08:12:41;10.30;98.80
3954;DHT22;1991;48.682;9.030;2022-12-29T08:15:09;10.30;98.60
3954;DHT22;1991;48.682;9.030;2022-12-29T08:17:35;10.40;98.70
3954;DHT22;1991;48.682;9.030;2022-12-29T08:20:00;10.40;98.40
3954;DHT22;1991;48.682;9.030;2022-12-29T08:22:26;10.40;98.50
3954;DHT22;1991;48.682;9.030;2022-12-29T08:24:52;10.40;98.40
3954;DHT22;1991;48.682;9.030;2022-12-29T08:27:18;10.40;98.50
3954;DHT22;1991;48.682;9.030;2022-12-29T08:29:44;10.50;98.50
3954;DHT22;1991;48.682;9.030;2022-12-29T08:32:10;10.40;98.50
3954;DHT22;1991;48.682;9.030;2022-12-29T08:34:36;10.40;98.50
3954;DHT22;1991;48.682;9.030;2022-12-29T08:37:02;10.50;98.40
3954;DHT22;1991;48.682;9.030;2022-12-29T08:39:27;10.50;98.40
3954;DHT22;1991;48.682;9.030;2022-12-29T08:41:54;10.50;98.50
3954;DHT22;1991;48.682;9.030;2022-12-29T08:44:19;10.40;98.70
3954;DHT22;1991;48.682;9.030;2022-12-29T08:46:45;10.30;98.70
3954;DHT22;1991;48.682;9.030;2022-12-29T08:49:10;10.50;98.50
3954;DHT22;1991;48.682;9.030;2022-12-29T08:51:36;10.40;98.50
3954;DHT22;1991;48.682;9.030;2022-12-29T08:54:02;10.40;98.70
3954;DHT22;1991;48.682;9.030;2022-12-29T08:56:28;10.30;98.90
3954;DHT22;1991;48.682;9.030;2022-12-29T08:58:53;10.20;99.20
3954;DHT22;1991;48.682;9.030;2022-12-29T09:01:19;10.30;99.10
3954;DHT22;1991;48.682;9.030;2022-12-29T09:03:45;10.30;99.00
3954;DHT22;1991;48.682;9.030;2022-12-29T09:06:11;10.30;98.90
3954;DHT22;1991;48.682;9.030;2022-12-29T09:08:37;10.50;98.60
3954;DHT22;1991;48.682;9.030;2022-12-29T09:11:11;10.60;98.50
3954;DHT22;1991;48.682;9.030;2022-12-29T09:13:36;10.80;98.20
3954;DHT22;1991;48.682;9.030;2022-12-29T09:16:03;10.80;97.50
3954;DHT22;1991;48.682;9.030;2022-12-29T09:18:29;11.00;97.10
3954;DHT22;1991;48.682;9.030;2022-12-29T09:20:59;11.10;96.80
3954;DHT22;1991;48.682;9.030;2022-12-29T09:23:25;11.20;96.70
3954;DHT22;1991;48.682;9.030;2022-12-29T09:25:52;11.40;96.10
3954;DHT22;1991;48.682;9.030;2022-12-29T09:28:18;11.60;95.70
3954;DHT22;1991;48.682;9.030;2022-12-29T09:30:43;11.80;95.20
3954;DHT22;1991;48.682;9.030;2022-12-29T09:33:09;11.90;95.00
3954;DHT22;1991;48.682;9.030;2022-12-29T09:35:34;12.00;94.60
3954;DHT22;1991;48.682;9.030;2022-12-29T09:38:00;12.60;94.00
3954;DHT22;1991;48.682;9.030;2022-12-29T09:40:27;12.80;92.90
3954;DHT22;1991;48.682;9.030;2022-12-29T09:48:35;12.60;93.00
3954;DHT22;1991;48.682;9.030;2022-12-29T09:51:08;12.70;93.00
3954;DHT22;1991;48.682;9.030;2022-12-29T09:53:44;12.60;92.80
3954;DHT22;1991;48.682;9.030;2022-12-29T09:56:19;12.70;92.80
3954;DHT22;1991;48.682;9.030;2022-12-29T10:01:31;12.90;92.10
3954;DHT22;1991;48.682;9.030;2022-12-29T10:03:59;12.80;92.40
3954;DHT22;1991;48.682;9.030;2022-12-29T10:06:48;12.70;92.50
3954;DHT22;1991;48.682;9.030;2022-12-29T10:22:43;13.50;91.70
3954;DHT22;1991;48.682;9.030;2022-12-29T10:25:22;13.60;91.40
3954;DHT22;1991;48.682;9.030;2022-12-29T10:27:49;13.40;91.20
3954;DHT22;1991;48.682;9.030;2022-12-29T10:30:16;13.40;91.40
3954;DHT22;1991;48.682;9.030;2022-12-29T10:32:53;13.80;91.20
3954;DHT22;1991;48.682;9.030;2022-12-29T10:35:32;14.10;90.80
3954;DHT22;1991;48.682;9.030;2022-12-29T10:41:12;18.30;80.90
3954;DHT22;1991;48.682;9.030;2022-12-29T10:46:12;22.00;59.60
3954;DHT22;1991;48.682;9.030;2022-12-29T10:48:39;21.80;55.30
3954;DHT22;1991;48.682;9.030;2022-12-29T10:51:06;18.40;60.30
3954;DHT22;1991;48.682;9.030;2022-12-29T10:53:45;16.50;65.80
3954;DHT22;1991;48.682;9.030;2022-12-29T10:58:54;14.60;73.90
3954;DHT22;1991;48.682;9.030;2022-12-29T11:01:22;14.00;76.80
3954;DHT22;1991;48.682;9.030;2022-12-29T11:04:07;13.60;78.90
3954;DHT22;1991;48.682;9.030;2022-12-29T11:06:36;13.60;80.40
3954;DHT22;1991;48.682;9.030;2022-12-29T11:09:23;13.70;81.00
3954;DHT22;1991;48.682;9.030;2022-12-29T11:11:49;13.40;81.90
3954;DHT22;1991;48.682;9.030;2022-12-29T11:14:21;13.30;83.20
3954;DHT22;1991;48.682;9.030;2022-12-29T11:19:26;14.00;81.60
3954;DHT22;1991;48.682;9.030;2022-12-29T11:21:52;13.80;82.00
3954;DHT22;1991;48.682;9.030;2022-12-29T11:24:28;13.20;84.80
3954;DHT22;1991;48.682;9.030;2022-12-29T11:27:08;12.90;87.50
3954;DHT22;1991;48.682;9.030;2022-12-29T11:29:39;12.70;90.40
3954;DHT22;1991;48.682;9.030;2022-12-29T11:34:42;13.30;91.70
3954;DHT22;1991;48.682;9.030;2022-12-29T11:39:54;14.80;88.40
3954;DHT22;1991;48.682;9.030;2022-12-29T11:42:35;19.60;75.80
3954;DHT22;1991;48.682;9.030;2022-12-29T11:45:09;18.50;69.60
3954;DHT22;1991;48.682;9.030;2022-12-29T11:47:42;16.80;73.00
3954;DHT22;1991;48.682;9.030;2022-12-29T11:50:18;15.10;79.70
3954;DHT22;1991;48.682;9.030;2022-12-29T11:52:45;13.90;84.60
3954;DHT22;1991;48.682;9.030;2022-12-29T11:55:25;12.90;89.20
3954;DHT22;1991;48.682;9.030;2022-12-29T11:57:53;12.60;91.20
3954;DHT22;1991;48.682;9.030;2022-12-29T12:00:22;12.30;92.00
3954;DHT22;1991;48.682;9.030;2022-12-29T12:02:54;12.20;92.70
3954;DHT22;1991;48.682;9.030;2022-12-29T12:05:39;12.10;93.60
3954;DHT22;1991;48.682;9.030;2022-12-29T12:08:24;12.00;94.10
3954;DHT22;1991;48.682;9.030;2022-12-29T12:11:11;11.90;94.90
3954;DHT22;1991;48.682;9.030;2022-12-29T12:13:55;11.80;95.60
3954;DHT22;1991;48.682;9.030;2022-12-29T12:16:27;11.70;96.00
3954;DHT22;1991;48.682;9.030;2022-12-29T12:19:02;11.80;96.50
3954;DHT22;1991;48.682;9.030;2022-12-29T12:21:40;11.70;97.10
3954;DHT22;1991;48.682;9.030;2022-12-29T12:24:22;11.80;97.80
3954;DHT22;1991;48.682;9.030;2022-12-29T12:29:43;11.70;99.90
3954;DHT22;1991;48.682;9.030;2022-12-29T12:32:34;11.70;99.90
3954;DHT22;1991;48.682;9.030;2022-12-29T12:35:03;11.50;99.90
3954;DHT22;1991;48.682;9.030;2022-12-29T12:41:13;11.10;99.90
3954;DHT22;1991;48.682;9.030;2022-12-29T12:54:08;12.50;99.90
3954;DHT22;1991;48.682;9.030;2022-12-29T13:08:23;18.90;78.40
3954;DHT22;1991;48.682;9.030;2022-12-29T13:11:06;17.70;79.60
3954;DHT22;1991;48.682;9.030;2022-12-29T13:14:19;16.30;84.30
3954;DHT22;1991;48.682;9.030;2022-12-29T13:19:40;18.00;79.60
3954;DHT22;1991;48.682;9.030;2022-12-29T13:22:34;17.60;79.70
3954;DHT22;1991;48.682;9.030;2022-12-29T13:25:18;16.00;83.60
3954;DHT22;1991;48.682;9.030;2022-12-29T13:28:25;14.70;89.50
3954;DHT22;1991;48.682;9.030;2022-12-29T13:33:44;13.20;94.40
3954;DHT22;1991;48.682;9.030;2022-12-29T13:38:43;12.60;98.40
3954;DHT22;1991;48.682;9.030;2022-12-29T13:41:20;12.30;99.90
3954;DHT22;1991;48.682;9.030;2022-12-29T13:43:49;12.20;99.90
3954;DHT22;1991;48.682;9.030;2022-12-29T13:49:22;12.00;99.90
3954;DHT22;1991;48.682;9.030;2022-12-29T13:51:58;12.00;99.90
3954;DHT22;1991;48.682;9.030;2022-12-29T13:57:28;11.90;99.90
3954;DHT22;1991;48.682;9.030;2022-12-29T14:00:17;12.10;99.90
3954;DHT22;1991;48.682;9.030;2022-12-29T14:07:44;13.90;98.10
3954;DHT22;1991;48.682;9.030;2022-12-29T14:10:35;13.40;99.20
3954;DHT22;1991;48.682;9.030;2022-12-29T14:13:24;12.80;99.90
3954;DHT22;1991;48.682;9.030;2022-12-29T14:15:54;12.40;99.90
3954;DHT22;1991;48.682;9.030;2022-12-29T14:18:25;12.40;99.90
3954;DHT22;1991;48.682;9.030;2022-12-29T14:23:37;12.70;99.90
3954;DHT22;1991;48.682;9.030;2022-12-29T14:31:01;14.10;97.90
3954;DHT22;1991;48.682;9.030;2022-12-29T14:33:29;14.50;97.00
3954;DHT22;1991;48.682;9.030;2022-12-29T14:35:56;14.00;96.70
3954;DHT22;1991;48.682;9.030;2022-12-29T14:38:25;13.30;97.80
3954;DHT22;1991;48.682;9.030;2022-12-29T14:40:52;12.90;98.90
3954;DHT22;1991;48.682;9.030;2022-12-29T14:43:21;12.40;99.90
3954;DHT22;1991;48.682;9.030;2022-12-29T14:45:56;12.00;99.90
3954;DHT22;1991;48.682;9.030;2022-12-29T14:48:38;11.80;99.90
3954;DHT22;1991;48.682;9.030;2022-12-29T14:51:26;11.60;99.90
3954;DHT22;1991;48.682;9.030;2022-12-29T14:53:53;11.50;99.90
3954;DHT22;1991;48.682;9.030;2022-12-29T14:56:23;11.40;99.90
3954;DHT22;1991;48.682;9.030;2022-12-29T14:59:01;11.20;99.90
3954;DHT22;1991;48.682;9.030;2022-12-29T15:01:42;11.20;99.90
3954;DHT22;1991;48.682;9.030;2022-12-29T15:04:18;11.10;99.90
3954;DHT22;1991;48.682;9.030;2022-12-29T15:06:46;11.00;99.90
3954;DHT22;1991;48.682;9.030;2022-12-29T15:09:17;10.90;99.90
3954;DHT22;1991;48.682;9.030;2022-12-29T15:11:51;11.00;99.90
3954;DHT22;1991;48.682;9.030;2022-12-29T15:14:28;10.90;99.90
3954;DHT22;1991;48.682;9.030;2022-12-29T15:16:54;10.70;99.90
3954;DHT22;1991;48.682;9.030;2022-12-29T15:19:24;10.70;99.90
3954;DHT22;1991;48.682;9.030;2022-12-29T15:21:50;10.70;99.90
3954;DHT22;1991;48.682;9.030;2022-12-29T15:24:17;10.70;99.90
3954;DHT22;1991;48.682;9.030;2022-12-29T15:26:46;10.80;99.90
3954;DHT22;1991;48.682;9.030;2022-12-29T15:29:32;10.80;99.90
3954;DHT22;1991;48.682;9.030;2022-12-29T15:34:43;10.70;99.90
3954;DHT22;1991;48.682;9.030;2022-12-29T15:37:09;10.80;99.90
3954;DHT22;1991;48.682;9.030;2022-12-29T15:39:35;10.80;99.90
3954;DHT22;1991;48.682;9.030;2022-12-29T15:42:19;10.70;99.90
3954;DHT22;1991;48.682;9.030;2022-12-29T15:44:47;10.60;99.90
3954;DHT22;1991;48.682;9.030;2022-12-29T15:47:20;10.50;99.90
3954;DHT22;1991;48.682;9.030;2022-12-29T15:49:56;10.40;99.90
3954;DHT22;1991;48.682;9.030;2022-12-29T15:52:31;10.50;99.90
3954;DHT22;1991;48.682;9.030;2022-12-29T15:54:58;10.40;99.90
3954;DHT22;1991;48.682;9.030;2022-12-29T15:57:27;10.40;99.90
3954;DHT22;1991;48.682;9.030;2022-12-29T15:59:53;10.40;99.90
3954;DHT22;1991;48.682;9.030;2022-12-29T16:02:21;10.60;99.90
3954;DHT22;1991;48.682;9.030;2022-12-29T16:04:48;10.70;99.90
3954;DHT22;1991;48.682;9.030;2022-12-29T16:07:26;10.60;99.90
3954;DHT22;1991;48.682;9.030;2022-12-29T16:10:00;10.70;99.90
3954;DHT22;1991;48.682;9.030;2022-12-29T16:12:31;10.60;99.90
3954;DHT22;1991;48.682;9.030;2022-12-29T16:15:05;10.50;99.90
3954;DHT22;1991;48.682;9.030;2022-12-29T16:17:36;10.40;99.90
3954;DHT22;1991;48.682;9.030;2022-12-29T16:20:22;10.40;99.90
3954;DHT22;1991;48.682;9.030;2022-12-29T16:22:51;10.20;99.90
3954;DHT22;1991;48.682;9.030;2022-12-29T16:25:28;10.10;99.90
3954;DHT22;1991;48.682;9.030;2022-12-29T16:27:56;9.90;99.90
3954;DHT22;1991;48.682;9.030;2022-12-29T16:30:33;9.80;99.90
3954;DHT22;1991;48.682;9.030;2022-12-29T16:33:05;9.70;99.90
3954;DHT22;1991;48.682;9.030;2022-12-29T16:38:22;9.60;99.90
3954;DHT22;1991;48.682;9.030;2022-12-29T16:43:27;9.50;99.90
3954;DHT22;1991;48.682;9.030;2022-12-29T16:48:27;9.50;99.90
3954;DHT22;1991;48.682;9.030;2022-12-29T16:51:23;9.40;99.90
3954;DHT22;1991;48.682;9.030;2022-12-29T16:53:52;9.40;99.90
3954;DHT22;1991;48.682;9.030;2022-12-29T16:56:24;9.30;99.90
3954;DHT22;1991;48.682;9.030;2022-12-29T16:59:06;9.20;99.90
3954;DHT22;1991;48.682;9.030;2022-12-29T17:01:37;9.30;99.90
3954;DHT22;1991;48.682;9.030;2022-12-29T17:04:08;9.20;99.90
3954;DHT22;1991;48.682;9.030;2022-12-29T17:06:35;9.00;99.90
3954;DHT22;1991;48.682;9.030;2022-12-29T17:09:01;8.80;99.90
3954;DHT22;1991;48.682;9.030;2022-12-29T17:11:32;8.60;99.90
3954;DHT22;1991;48.682;9.030;2022-12-29T17:16:45;8.50;99.90
3954;DHT22;1991;48.682;9.030;2022-12-29T17:19:16;8.40;99.90
3954;DHT22;1991;48.682;9.030;2022-12-29T17:21:43;8.50;99.90
3954;DHT22;1991;48.682;9.030;2022-12-29T17:24:15;8.60;99.90
3954;DHT22;1991;48.682;9.030;2022-12-29T17:26:42;8.60;99.90
3954;DHT22;1991;48.682;9.030;2022-12-29T17:29:15;8.60;99.90
3954;DHT22;1991;48.682;9.030;2022-12-29T17:31:41;8.70;99.90
3954;DHT22;1991;48.682;9.030;2022-12-29T17:34:07;8.60;99.90
3954;DHT22;1991;48.682;9.030;2022-12-29T17:36:36;8.60;99.90
3954;DHT22;1991;48.682;9.030;2022-12-29T17:39:01;8.60;99.90
3954;DHT22;1991;48.682;9.030;2022-12-29T17:41:35;8.60;99.90
3954;DHT22;1991;48.682;9.030;2022-12-29T17:44:01;8.60;99.90
3954;DHT22;1991;48.682;9.030;2022-12-29T17:46:27;8.70;99.90
3954;DHT22;1991;48.682;9.030;2022-12-29T17:48:53;8.70;99.90
3954;DHT22;1991;48.682;9.030;2022-12-29T17:51:20;8.70;99.90
3954;DHT22;1991;48.682;9.030;2022-12-29T17:53:46;8.70;99.90
3954;DHT22;1991;48.682;9.030;2022-12-29T17:56:11;8.70;99.90
3954;DHT22;1991;48.682;9.030;2022-12-29T17:58:37;8.70;99.90
3954;DHT22;1991;48.682;9.030;2022-12-29T18:01:03;8.60;99.90
3954;DHT22;1991;48.682;9.030;2022-12-29T18:03:36;8.70;99.90
3954;DHT22;1991;48.682;9.030;2022-12-29T18:06:02;8.70;99.90
3954;DHT22;1991;48.682;9.030;2022-12-29T18:08:31;8.70;99.90
3954;DHT22;1991;48.682;9.030;2022-12-29T18:10:57;8.80;99.90
3954;DHT22;1991;48.682;9.030;2022-12-29T18:13:30;8.80;99.90
3954;DHT22;1991;48.682;9.030;2022-12-29T18:15:57;8.90;99.90
3954;DHT22;1991;48.682;9.030;2022-12-29T18:18:25;8.90;99.90
3954;DHT22;1991;48.682;9.030;2022-12-29T18:20:53;8.90;99.90
3954;DHT22;1991;48.682;9.030;2022-12-29T18:23:25;9.00;99.90
3954;DHT22;1991;48.682;9.030;2022-12-29T18:26:00;9.00;99.90
3954;DHT22;1991;48.682;9.030;2022-12-29T18:28:27;9.10;99.90
3954;DHT22;1991;48.682;9.030;2022-12-29T18:30:56;9.10;99.90
3954;DHT22;1991;48.682;9.030;2022-12-29T18:33:22;9.10;99.90
3954;DHT22;1991;48.682;9.030;2022-12-29T18:36:04;9.10;99.90
3954;DHT22;1991;48.682;9.030;2022-12-29T18:38:30;9.00;99.90
3954;DHT22;1991;48.682;9.030;2022-12-29T18:40:58;9.00;99.90
3954;DHT22;1991;48.682;9.030;2022-12-29T18:43:23;8.90;99.90
3954;DHT22;1991;48.682;9.030;2022-12-29T18:45:49;8.90;99.90
3954;DHT22;1991;48.682;9.030;2022-12-29T18:48:17;8.90;99.90